Ulysses, Pennsylvania
Current Conditions -  °F | °C
As of 7:56 PM on Monday 20 Oct 2014 (Local Time) from KELZ Reporting Station
Overcast Overcast  
Wind Chill: 50°   Ceiling: 6500
Heat Index: 50°   Visibility: 10mi
Dew Point: 38°   Wind: 9mph
Humidity: 63%   Direction: 210°SSW
Pressure: 29.88"   Gusts: NA
Location:  41.9°N, 77.76°W
Report Text: KELZ 202356Z AUTO 21008KT 10SM BKN065 OVC080 10/03 A2988 RMK AO2 RAE06 SLP125 P0000 60000 T01000033 10117 20094 53004
Loading
Personal Weather Stations






























Interactive Weather Map
Tropical Storm Tracking
New forecast layout! Learn more

10-Day Weather Forecast

Advertisements
Track Severe Weather on mobile